createdAt,value
2023-04-18T00:01:10.097Z,64.49
2023-04-18T00:03:41.735Z,65.25
2023-04-18T00:06:14.708Z,66.37
2023-04-18T00:08:46.330Z,67.33
2023-04-18T00:11:16.529Z,65.40
2023-04-18T00:13:48.349Z,65.27
2023-04-18T00:16:20.058Z,67.12
2023-04-18T00:18:54.842Z,67.41
2023-04-18T00:21:26.399Z,67.46
2023-04-18T00:23:57.578Z,68.40
2023-04-18T00:26:28.787Z,68.58
2023-04-18T00:29:00.522Z,66.68
2023-04-18T00:31:30.808Z,67.94
2023-04-18T00:34:01.858Z,68.08
2023-04-18T00:36:33.119Z,68.40
2023-04-18T00:39:04.368Z,67.70
2023-04-18T00:41:36.130Z,67.66
2023-04-18T00:44:06.604Z,67.60
2023-04-18T00:46:37.683Z,67.34
2023-04-18T00:49:08.525Z,67.30
2023-04-18T00:51:39.597Z,67.67
2023-04-18T00:54:13.821Z,67.35
2023-04-18T00:56:44.904Z,67.47
2023-04-18T00:59:15.385Z,67.02
2023-04-18T01:01:48.689Z,67.87
2023-04-18T01:04:20.584Z,68.28
2023-04-18T01:06:51.818Z,69.50
2023-04-18T01:09:23.679Z,69.14
2023-04-18T01:11:55.894Z,69.21
2023-04-18T01:14:33.495Z,68.99
2023-04-18T01:17:12.542Z,70.10
2023-04-18T01:19:44.694Z,69.55
2023-04-18T01:22:18.340Z,70.04
2023-04-18T01:24:49.464Z,69.65
2023-04-18T01:27:21.966Z,69.69
2023-04-18T01:29:52.787Z,69.87
2023-04-18T01:32:25.283Z,70.26
2023-04-18T01:34:56.236Z,70.07
2023-04-18T01:37:25.832Z,70.82
2023-04-18T01:39:56.573Z,71.01
2023-04-18T01:42:26.854Z,71.53
2023-04-18T01:44:57.554Z,71.25
2023-04-18T01:47:27.530Z,71.22
2023-04-18T01:49:57.728Z,71.59
2023-04-18T01:52:29.165Z,70.98
2023-04-18T01:55:02.538Z,71.08
2023-04-18T01:57:32.491Z,71.21
2023-04-18T02:00:03.039Z,71.89
2023-04-18T02:02:33.998Z,71.35
2023-04-18T02:05:04.465Z,71.24
2023-04-18T02:07:34.544Z,72.07
2023-04-18T02:10:05.029Z,73.63
2023-04-18T02:12:37.330Z,73.30
2023-04-18T02:15:09.928Z,72.96
2023-04-18T02:17:40.717Z,73.45
2023-04-18T02:20:12.564Z,74.56
2023-04-18T02:22:45.648Z,73.02
2023-04-18T02:25:15.073Z,72.69
2023-04-18T02:27:46.495Z,73.88
2023-04-18T02:30:17.135Z,75.48
2023-04-18T02:32:51.678Z,76.28
2023-04-18T02:35:28.794Z,75.43
2023-04-18T02:38:03.342Z,74.98
2023-04-18T02:40:34.469Z,75.69
2023-04-18T02:43:05.584Z,79.25
2023-04-18T02:45:39.095Z,80.28
2023-04-18T02:48:09.657Z,79.05
2023-04-18T02:50:43.143Z,79.63
2023-04-18T02:53:14.733Z,78.40
2023-04-18T02:55:56.463Z,80.42
2023-04-18T02:58:30.834Z,77.86
2023-04-18T03:01:13.654Z,74.99
2023-04-18T03:03:54.804Z,81.32
2023-04-18T03:06:35.259Z,80.09
2023-04-18T03:09:06.110Z,83.22
2023-04-18T03:11:38.523Z,85.54
2023-04-18T03:14:08.319Z,85.86
2023-04-18T03:16:50.446Z,86.60
2023-04-18T03:19:25.638Z,82.50
2023-04-18T03:21:56.674Z,86.42
2023-04-18T03:24:26.717Z,84.66
2023-04-18T03:26:58.537Z,84.05
2023-04-18T03:29:29.073Z,85.47
2023-04-18T03:31:59.430Z,85.76
2023-04-18T03:34:29.656Z,83.98
2023-04-18T03:37:00.293Z,85.42
2023-04-18T03:39:30.645Z,85.76
2023-04-18T03:42:00.543Z,89.88
2023-04-18T03:44:30.251Z,87.10
2023-04-18T03:47:00.868Z,87.86
2023-04-18T03:49:31.581Z,89.42
2023-04-18T03:52:01.502Z,91.01
2023-04-18T03:54:31.118Z,88.18
2023-04-18T03:57:00.431Z,89.64
2023-04-18T03:59:31.052Z,87.41
2023-04-18T04:02:01.628Z,88.11
2023-04-18T04:04:32.670Z,91.47
2023-04-18T04:07:02.181Z,88.50
2023-04-18T04:09:31.982Z,88.63
2023-04-18T04:12:03.634Z,86.87
2023-04-18T04:14:33.815Z,86.25
2023-04-18T04:17:03.717Z,84.71
2023-04-18T04:19:33.598Z,84.36
2023-04-18T04:22:15.652Z,88.72
2023-04-18T04:24:47.140Z,90.17
2023-04-18T04:27:19.384Z,85.60
2023-04-18T04:29:50.211Z,88.76
2023-04-18T04:32:21.033Z,90.51
2023-04-18T04:34:50.827Z,90.17
2023-04-18T04:37:21.205Z,87.87
2023-04-18T04:40:01.843Z,88.48
2023-04-18T04:42:44.242Z,87.16
2023-04-18T04:45:20.178Z,86.19
2023-04-18T04:47:50.716Z,84.30
2023-04-18T04:50:19.824Z,82.41
2023-04-18T04:52:49.356Z,81.78
2023-04-18T04:55:19.368Z,80.59
2023-04-18T04:57:48.245Z,78.59
2023-04-18T05:00:47.316Z,77.78
2023-04-18T05:03:17.336Z,78.52
2023-04-18T05:05:46.637Z,80.11
2023-04-18T05:08:15.767Z,80.81
2023-04-18T05:10:46.234Z,77.66
2023-04-18T05:13:15.273Z,68.48
2023-04-18T05:15:44.352Z,66.67
2023-04-18T05:18:14.791Z,66.82
2023-04-18T05:20:44.278Z,68.67
2023-04-18T05:23:13.488Z,67.50
2023-04-18T05:25:42.999Z,68.87
2023-04-18T05:28:11.770Z,68.32
2023-04-18T05:30:41.283Z,65.92
2023-04-18T05:33:10.059Z,64.75
2023-04-18T05:35:39.841Z,64.43
2023-04-18T05:38:09.187Z,64.85
2023-04-18T05:40:38.272Z,63.50
2023-04-18T05:43:07.160Z,63.19
2023-04-18T05:45:35.958Z,64.41
2023-04-18T05:48:05.018Z,64.75
2023-04-18T05:50:33.829Z,63.85
2023-04-18T05:53:02.728Z,63.64
2023-04-18T05:55:31.821Z,64.03
2023-04-18T05:58:01.230Z,64.18
2023-04-18T06:00:30.213Z,64.02
2023-04-18T06:02:59.160Z,62.68
2023-04-18T06:05:28.758Z,60.02
2023-04-18T06:07:58.109Z,59.27
2023-04-18T06:10:27.101Z,58.70
2023-04-18T06:12:55.682Z,56.27
2023-04-18T06:15:25.509Z,54.30
2023-04-18T06:17:54.532Z,52.82
2023-04-18T06:20:23.525Z,52.28
2023-04-18T06:22:52.090Z,51.84
2023-04-18T06:25:21.173Z,50.75
2023-04-18T06:27:50.050Z,51.48
2023-04-18T06:30:22.291Z,51.01
2023-04-18T06:32:51.352Z,49.72
2023-04-18T06:35:20.249Z,49.87
2023-04-18T06:37:49.508Z,50.27
2023-04-18T06:40:18.166Z,50.13
2023-04-18T06:42:47.100Z,50.53
2023-04-18T06:45:16.076Z,50.13
2023-04-18T06:47:45.455Z,49.64
2023-04-18T06:50:15.306Z,49.46
2023-04-18T06:52:47.354Z,48.91
2023-04-18T06:55:16.047Z,49.23
2023-04-18T06:57:45.047Z,48.59
2023-04-18T07:00:14.698Z,49.06
2023-04-18T07:02:43.932Z,48.34
2023-04-18T07:05:13.138Z,48.62
2023-04-18T07:07:41.838Z,48.91
2023-04-18T07:10:11.866Z,48.82
2023-04-18T07:12:40.664Z,48.36
2023-04-18T07:15:10.191Z,47.93
2023-04-18T07:17:39.009Z,48.28
2023-04-18T07:20:08.697Z,46.48
2023-04-18T07:22:38.048Z,47.62
2023-04-18T07:25:07.239Z,47.97
2023-04-18T07:27:37.454Z,48.42
2023-04-18T07:30:07.007Z,48.71
2023-04-18T07:32:35.905Z,47.99
2023-04-18T07:35:05.576Z,48.48
2023-04-18T07:37:34.649Z,47.62
2023-04-18T07:40:04.829Z,47.26
2023-04-18T07:42:33.657Z,46.88
2023-04-18T07:45:02.943Z,46.94
2023-04-18T07:47:32.596Z,46.64
2023-04-18T07:50:03.255Z,46.56
2023-04-18T07:52:31.883Z,46.39
2023-04-18T07:55:00.666Z,46.80
2023-04-18T07:57:29.674Z,46.38
2023-04-18T07:59:58.460Z,46.44
2023-04-18T08:02:27.350Z,46.57
2023-04-18T08:04:56.744Z,46.12
2023-04-18T08:07:25.956Z,45.28
2023-04-18T08:09:55.139Z,44.43
2023-04-18T08:12:24.355Z,43.51
2023-04-18T08:14:53.848Z,43.56
2023-04-18T08:17:23.679Z,43.63
2023-04-18T08:19:52.345Z,43.99
2023-04-18T08:22:21.636Z,43.62
2023-04-18T08:25:03.856Z,44.12
2023-04-18T08:27:34.476Z,44.27
2023-04-18T08:30:05.056Z,43.40
2023-04-18T08:32:33.933Z,42.94
2023-04-18T08:35:04.518Z,42.91
2023-04-18T08:37:35.686Z,43.92
2023-04-18T08:40:09.049Z,43.04
2023-04-18T08:42:38.806Z,41.13
2023-04-18T08:45:09.678Z,40.32
2023-04-18T08:47:38.429Z,39.14
2023-04-18T08:50:09.482Z,40.10
2023-04-18T08:52:40.093Z,39.95
2023-04-18T08:55:10.600Z,39.81
2023-04-18T08:57:40.115Z,40.37
2023-04-18T09:00:12.190Z,41.83
2023-04-18T09:02:43.064Z,41.58
2023-04-18T09:05:19.350Z,41.20
2023-04-18T09:07:49.840Z,40.56
2023-04-18T09:10:36.192Z,41.58
2023-04-18T09:13:04.886Z,42.46
2023-04-18T09:15:34.799Z,42.46
2023-04-18T09:18:10.765Z,42.81
2023-04-18T09:20:44.874Z,43.04
2023-04-18T09:23:25.182Z,42.38
2023-04-18T09:25:54.929Z,41.81
2023-04-18T09:28:29.462Z,41.63
2023-04-18T09:31:18.391Z,41.68
2023-04-18T09:33:57.566Z,41.92
2023-04-18T09:36:28.066Z,42.62
2023-04-18T09:38:57.555Z,43.42
2023-04-18T09:41:27.551Z,42.85
2023-04-18T09:44:15.382Z,42.58
2023-04-18T09:46:47.403Z,42.31
2023-04-18T09:49:18.930Z,42.66
2023-04-18T09:51:51.227Z,42.33
2023-04-18T09:54:24.114Z,42.13
2023-04-18T09:56:54.551Z,41.49
2023-04-18T09:59:49.517Z,41.76
2023-04-18T10:02:23.156Z,41.25
2023-04-18T10:04:54.697Z,41.88
2023-04-18T10:07:26.133Z,42.06
2023-04-18T10:09:54.917Z,42.83
2023-04-18T10:12:25.969Z,42.80
2023-04-18T10:14:55.254Z,42.91
2023-04-18T10:17:24.286Z,42.69
2023-04-18T10:20:13.132Z,43.23
2023-04-18T10:22:41.778Z,42.72
2023-04-18T10:25:11.410Z,42.00
2023-04-18T10:27:49.153Z,40.99
2023-04-18T10:30:19.159Z,40.60
2023-04-18T10:32:47.845Z,41.31
2023-04-18T10:35:17.318Z,41.83
2023-04-18T10:37:52.964Z,40.41
2023-04-18T10:40:34.862Z,41.33
2023-04-18T10:43:03.836Z,41.32
2023-04-18T10:45:36.736Z,42.33
2023-04-18T10:48:26.506Z,42.92
2023-04-18T10:51:19.415Z,41.72
2023-04-18T10:53:57.876Z,42.27
2023-04-18T10:56:28.454Z,42.36
2023-04-18T10:59:02.726Z,42.16
2023-04-18T11:01:33.364Z,42.11
2023-04-18T11:04:02.421Z,42.99
2023-04-18T11:06:31.811Z,42.61
2023-04-18T11:09:11.751Z,42.93
2023-04-18T11:11:40.701Z,44.00
2023-04-18T11:14:10.139Z,42.72
2023-04-18T11:16:40.078Z,42.58
2023-04-18T11:19:20.404Z,42.59
2023-04-18T11:21:49.587Z,41.75
2023-04-18T11:24:24.747Z,41.26
2023-04-18T11:26:56.457Z,41.96
2023-04-18T11:29:25.143Z,41.96
2023-04-18T11:31:57.501Z,40.99
2023-04-18T11:34:32.758Z,42.55
2023-04-18T11:37:08.302Z,42.46
2023-04-18T11:39:44.074Z,42.48
2023-04-18T11:42:12.743Z,42.39
2023-04-18T11:44:46.734Z,41.96
2023-04-18T11:47:29.178Z,41.73
2023-04-18T11:50:04.136Z,41.90
2023-04-18T11:52:34.523Z,42.49
2023-04-18T11:55:17.986Z,42.97
2023-04-18T11:58:01.708Z,43.54
2023-04-18T12:00:39.076Z,43.00
2023-04-18T12:03:19.133Z,42.80
2023-04-18T12:05:48.501Z,42.50
2023-04-18T12:08:21.315Z,42.32
2023-04-18T12:10:52.966Z,43.08
2023-04-18T12:13:27.013Z,42.84
2023-04-18T12:15:56.617Z,42.48
2023-04-18T12:18:25.678Z,42.75
2023-04-18T12:20:54.785Z,42.75
2023-04-18T12:23:39.334Z,43.57
2023-04-18T12:26:15.573Z,42.08
2023-04-18T12:28:51.866Z,42.67
2023-04-18T12:31:22.094Z,42.44
2023-04-18T12:33:51.175Z,42.01
2023-04-18T12:36:24.096Z,42.82
2023-04-18T12:38:52.967Z,41.90
2023-04-18T12:41:21.727Z,42.30
2023-04-18T12:43:50.429Z,42.90
2023-04-18T12:46:19.366Z,42.93
2023-04-18T12:48:48.199Z,41.97
2023-04-18T12:51:17.097Z,41.73
2023-04-18T12:53:46.492Z,41.70
2023-04-18T12:56:15.892Z,42.64
2023-04-18T12:58:44.886Z,42.53
2023-04-18T13:01:14.438Z,42.65
2023-04-18T13:03:45.618Z,42.73
2023-04-18T13:06:18.221Z,43.07
2023-04-18T13:08:47.728Z,43.59
2023-04-18T13:11:18.349Z,43.26
2023-04-18T13:13:47.550Z,42.92
2023-04-18T13:16:16.604Z,43.02
2023-04-18T13:18:45.838Z,43.18
2023-04-18T13:21:14.535Z,43.48
2023-04-18T13:23:43.321Z,43.14
2023-04-18T13:26:12.490Z,43.21
2023-04-18T13:28:41.096Z,43.08
2023-04-18T13:31:09.788Z,43.18
2023-04-18T13:33:40.518Z,43.61
2023-04-18T13:36:09.555Z,43.15
2023-04-18T13:38:38.703Z,42.57
2023-04-18T13:41:12.878Z,42.77
2023-04-18T13:43:42.328Z,43.09
2023-04-18T13:46:12.078Z,44.05
2023-04-18T13:48:41.030Z,42.89
2023-04-18T13:51:09.712Z,43.34
2023-04-18T13:53:38.925Z,43.27
2023-04-18T13:56:08.108Z,42.91
2023-04-18T13:58:36.793Z,43.11
2023-04-18T14:01:05.933Z,42.94
2023-04-18T14:03:36.417Z,42.69
2023-04-18T14:06:07.055Z,43.62
2023-04-18T14:08:36.148Z,43.59
2023-04-18T14:11:05.032Z,43.30
2023-04-18T14:13:33.664Z,43.48
2023-04-18T14:16:02.432Z,42.73
2023-04-18T14:18:31.599Z,43.92
2023-04-18T14:21:00.632Z,43.15
2023-04-18T14:23:29.428Z,42.97
2023-04-18T14:25:58.245Z,43.50
2023-04-18T14:28:27.883Z,44.23
2023-04-18T14:30:58.135Z,44.49
2023-04-18T14:33:26.805Z,44.92
2023-04-18T14:35:56.095Z,44.62
2023-04-18T14:38:24.770Z,44.69
2023-04-18T14:40:54.699Z,44.87
2023-04-18T14:43:23.337Z,44.40
2023-04-18T14:45:52.563Z,44.87
2023-04-18T14:48:21.627Z,45.45
2023-04-18T14:50:58.444Z,45.08
2023-04-18T14:53:27.451Z,45.04
2023-04-18T14:55:56.704Z,45.50
2023-04-18T14:58:26.143Z,45.98
2023-04-18T15:00:55.189Z,45.94
2023-04-18T15:03:24.017Z,45.90
2023-04-18T15:05:53.635Z,45.99
2023-04-18T15:08:22.721Z,46.85
2023-04-18T15:10:51.505Z,47.22
2023-04-18T15:13:20.805Z,46.73
2023-04-18T15:15:54.430Z,47.07
2023-04-18T15:18:23.313Z,47.40
2023-04-18T15:20:52.124Z,47.27
2023-04-18T15:23:21.130Z,47.35
2023-04-18T15:25:49.970Z,47.65
2023-04-18T15:28:19.782Z,47.87
2023-04-18T15:30:48.385Z,48.90
2023-04-18T15:33:19.509Z,49.10
2023-04-18T15:35:48.503Z,49.42
2023-04-18T15:38:17.405Z,50.20
2023-04-18T15:40:46.264Z,50.27
2023-04-18T15:43:17.391Z,50.53
2023-04-18T15:45:47.241Z,50.42
2023-04-18T15:48:15.935Z,50.65
2023-04-18T15:50:50.984Z,50.75
2023-04-18T15:53:19.952Z,50.96
2023-04-18T15:55:48.534Z,50.94
2023-04-18T15:58:17.797Z,51.74
2023-04-18T16:00:47.038Z,52.81
2023-04-18T16:03:16.157Z,53.26
2023-04-18T16:05:44.907Z,53.98
2023-04-18T16:08:13.699Z,52.77
2023-04-18T16:10:43.651Z,52.43
2023-04-18T16:13:12.510Z,52.48
2023-04-18T16:15:44.254Z,52.02
2023-04-18T16:18:13.261Z,51.97
2023-04-18T16:20:42.305Z,51.38
2023-04-18T16:23:11.468Z,51.71
2023-04-18T16:25:40.433Z,51.54
2023-04-18T16:28:09.018Z,51.60
2023-04-18T16:30:38.020Z,51.67
2023-04-18T16:33:06.838Z,52.78
2023-04-18T16:35:35.898Z,55.79
2023-04-18T16:38:05.309Z,57.08
2023-04-18T16:40:35.322Z,55.62
2023-04-18T16:43:03.910Z,55.66
2023-04-18T16:45:33.608Z,56.20
2023-04-18T16:48:02.299Z,57.12
2023-04-18T16:50:31.394Z,56.97
2023-04-18T16:52:59.974Z,58.52
2023-04-18T16:55:28.709Z,60.17
2023-04-18T16:57:57.233Z,61.59
2023-04-18T17:00:26.050Z,61.16
2023-04-18T17:02:56.243Z,59.91
2023-04-18T17:05:26.368Z,59.57
2023-04-18T17:07:58.476Z,60.10
2023-04-18T17:10:30.230Z,58.14
2023-04-18T17:12:59.587Z,58.09
2023-04-18T17:15:28.209Z,60.91
2023-04-18T17:18:00.466Z,61.67
2023-04-18T17:20:29.247Z,61.08
2023-04-18T17:22:57.860Z,60.55
2023-04-18T17:25:26.258Z,60.84
2023-04-18T17:27:54.790Z,61.23
2023-04-18T17:30:23.610Z,60.80
2023-04-18T17:32:53.053Z,60.22
2023-04-18T17:35:22.208Z,59.54
2023-04-18T17:37:53.167Z,60.19
2023-04-18T17:40:24.143Z,61.90
2023-04-18T17:42:52.666Z,65.80
2023-04-18T17:45:21.651Z,64.79
2023-04-18T17:47:51.079Z,63.17
2023-04-18T17:50:19.975Z,63.09
2023-04-18T17:52:48.541Z,65.64
2023-04-18T17:55:17.177Z,65.89
2023-04-18T17:57:45.867Z,65.95
2023-04-18T18:00:15.057Z,66.40
2023-04-18T18:02:44.915Z,65.17
2023-04-18T18:05:14.811Z,66.78
2023-04-18T18:07:48.228Z,66.43
2023-04-18T18:10:23.901Z,65.64
2023-04-18T18:12:53.021Z,67.03
2023-04-18T18:15:21.561Z,65.36
2023-04-18T18:17:50.915Z,64.93
2023-04-18T18:20:20.108Z,64.54
2023-04-18T18:22:48.663Z,65.67
2023-04-18T18:25:17.397Z,65.78
2023-04-18T18:27:45.953Z,65.59
2023-04-18T18:30:14.861Z,65.55
2023-04-18T18:32:43.907Z,64.74
2023-04-18T18:35:13.120Z,64.89
2023-04-18T18:37:41.698Z,64.74
2023-04-18T18:40:10.722Z,64.79
2023-04-18T18:42:42.744Z,65.33
2023-04-18T18:45:11.223Z,65.08
2023-04-18T18:47:40.217Z,64.34
2023-04-18T18:50:09.672Z,64.94
2023-04-18T18:52:40.912Z,64.84
2023-04-18T18:55:10.977Z,64.70
2023-04-18T18:57:39.576Z,64.94
2023-04-18T19:00:12.381Z,65.08
2023-04-18T19:02:41.204Z,65.45
2023-04-18T19:05:12.884Z,65.65
2023-04-18T19:07:44.591Z,64.69
2023-04-18T19:10:13.378Z,64.97
2023-04-18T19:12:42.026Z,65.12
2023-04-18T19:15:11.889Z,64.74
2023-04-18T19:17:40.727Z,64.39
2023-04-18T19:20:09.878Z,64.48
2023-04-18T19:22:38.547Z,64.57
2023-04-18T19:25:07.976Z,64.91
2023-04-18T19:27:36.513Z,65.67
2023-04-18T19:30:05.790Z,65.49
2023-04-18T19:32:34.595Z,65.43
2023-04-18T19:35:03.224Z,65.72
2023-04-18T19:37:32.102Z,65.19
2023-04-18T19:40:01.421Z,65.19
2023-04-18T19:42:29.964Z,65.54
2023-04-18T19:45:00.541Z,64.73
2023-04-18T19:47:34.082Z,65.21
2023-04-18T19:50:02.988Z,66.94
2023-04-18T19:52:31.548Z,66.60
2023-04-18T19:55:00.191Z,66.24
2023-04-18T19:57:29.878Z,67.02
2023-04-18T19:59:58.420Z,66.99
2023-04-18T20:02:27.077Z,67.96
2023-04-18T20:04:56.038Z,68.45
2023-04-18T20:07:26.277Z,69.33
2023-04-18T20:09:55.095Z,69.40
2023-04-18T20:12:23.911Z,69.32
2023-04-18T20:14:52.762Z,69.36
2023-04-18T20:17:21.871Z,70.51
2023-04-18T20:19:51.342Z,70.12
2023-04-18T20:22:20.077Z,69.94
2023-04-18T20:24:49.515Z,69.08
2023-04-18T20:27:20.766Z,69.82
2023-04-18T20:29:49.656Z,69.40
2023-04-18T20:32:19.069Z,69.65
2023-04-18T20:34:48.682Z,69.48
2023-04-18T20:37:20.117Z,69.17
2023-04-18T20:39:49.101Z,69.17
2023-04-18T20:42:18.906Z,68.21
2023-04-18T20:44:47.905Z,68.86
2023-04-18T20:47:16.436Z,69.07
2023-04-18T20:49:45.030Z,69.66
2023-04-18T20:52:14.575Z,72.34
2023-04-18T20:54:43.269Z,73.56
2023-04-18T20:57:11.994Z,73.88
2023-04-18T20:59:40.914Z,72.51
2023-04-18T21:02:10.005Z,73.01
2023-04-18T21:04:39.123Z,72.55
2023-04-18T21:07:07.795Z,72.76
2023-04-18T21:09:37.289Z,73.43
2023-04-18T21:12:06.577Z,73.10
2023-04-18T21:14:35.388Z,72.83
2023-04-18T21:17:04.308Z,73.45
2023-04-18T21:19:33.398Z,74.42
2023-04-18T21:22:02.416Z,75.21
2023-04-18T21:24:31.104Z,74.99
2023-04-18T21:26:59.958Z,73.73
2023-04-18T21:29:28.808Z,73.57
2023-04-18T21:31:58.232Z,74.72
2023-04-18T21:34:27.779Z,73.30
2023-04-18T21:36:58.053Z,73.31
2023-04-18T21:39:28.312Z,73.90
2023-04-18T21:41:58.403Z,72.57
2023-04-18T21:44:27.121Z,72.98
2023-04-18T21:46:56.964Z,72.64
2023-04-18T21:49:25.981Z,72.83
2023-04-18T21:51:55.642Z,73.74
2023-04-18T21:54:24.675Z,74.24
2023-04-18T21:56:53.506Z,73.35
2023-04-18T21:59:22.944Z,72.02
2023-04-18T22:01:51.834Z,72.56
2023-04-18T22:04:22.521Z,73.51
2023-04-18T22:06:55.896Z,72.87
2023-04-18T22:09:24.749Z,72.84
2023-04-18T22:11:57.137Z,74.22
2023-04-18T22:14:26.611Z,74.92
2023-04-18T22:16:55.714Z,73.49
2023-04-18T22:19:25.199Z,73.29
2023-04-18T22:21:54.605Z,72.49
2023-04-18T22:24:24.918Z,70.78
2023-04-18T22:26:53.917Z,72.17
2023-04-18T22:29:23.011Z,71.68
2023-04-18T22:31:51.959Z,76.92
2023-04-18T22:34:20.912Z,76.25
2023-04-18T22:36:49.844Z,77.84
2023-04-18T22:39:18.738Z,77.95
2023-04-18T22:41:47.901Z,79.34
2023-04-18T22:44:17.658Z,79.52
2023-04-18T22:46:48.531Z,79.53
2023-04-18T22:49:18.882Z,80.28
2023-04-18T22:51:49.488Z,81.05
2023-04-18T22:54:19.105Z,79.30
2023-04-18T22:56:50.650Z,79.41
2023-04-18T22:59:19.829Z,79.51
2023-04-18T23:01:48.695Z,76.80
2023-04-18T23:04:17.975Z,79.24
2023-04-18T23:06:47.394Z,78.84
2023-04-18T23:09:20.148Z,82.23
2023-04-18T23:11:49.886Z,82.44
2023-04-18T23:14:19.443Z,80.41
2023-04-18T23:16:49.078Z,77.44
2023-04-18T23:19:21.062Z,80.30
2023-04-18T23:21:50.027Z,79.95
2023-04-18T23:24:18.671Z,81.40
2023-04-18T23:26:47.937Z,83.51
2023-04-18T23:29:17.877Z,81.45
2023-04-18T23:31:47.602Z,83.43
2023-04-18T23:34:16.968Z,85.36
2023-04-18T23:36:47.383Z,85.54
2023-04-18T23:39:19.323Z,84.47
2023-04-18T23:41:49.724Z,83.53
2023-04-18T23:44:20.779Z,83.44
2023-04-18T23:46:51.216Z,83.49
2023-04-18T23:49:22.160Z,84.02
2023-04-18T23:51:52.240Z,83.87
2023-04-18T23:54:22.907Z,81.78
2023-04-18T23:56:53.109Z,83.75
2023-04-18T23:59:22.868Z,85.94
